sensor_id;sensor_type;location;lat;lon;timestamp;temperature;humidity
5924;DHT22;2987;50.884;14.818;2024-03-25T00:01:41;4.80;99.90
5924;DHT22;2987;50.884;14.818;2024-03-25T00:04:07;4.80;99.90
5924;DHT22;2987;50.884;14.818;2024-03-25T00:06:33;5.20;99.90
5924;DHT22;2987;50.884;14.818;2024-03-25T00:09:00;4.80;99.90
5924;DHT22;2987;50.884;14.818;2024-03-25T00:11:27;5.10;99.90
5924;DHT22;2987;50.884;14.818;2024-03-25T00:13:53;5.30;99.90
5924;DHT22;2987;50.884;14.818;2024-03-25T00:16:19;5.20;99.90
5924;DHT22;2987;50.884;14.818;2024-03-25T00:18:45;5.10;99.90
5924;DHT22;2987;50.884;14.818;2024-03-25T00:21:11;5.10;99.90
5924;DHT22;2987;50.884;14.818;2024-03-25T00:23:37;5.00;99.90
5924;DHT22;2987;50.884;14.818;2024-03-25T00:26:03;5.00;99.90
5924;DHT22;2987;50.884;14.818;2024-03-25T00:28:29;5.10;99.90
5924;DHT22;2987;50.884;14.818;2024-03-25T00:30:55;5.40;99.90
5924;DHT22;2987;50.884;14.818;2024-03-25T00:33:21;5.10;99.90
5924;DHT22;2987;50.884;14.818;2024-03-25T00:35:47;5.10;99.90
5924;DHT22;2987;50.884;14.818;2024-03-25T00:38:13;5.50;99.90
5924;DHT22;2987;50.884;14.818;2024-03-25T00:40:39;5.10;99.90
5924;DHT22;2987;50.884;14.818;2024-03-25T00:43:05;5.60;99.90
5924;DHT22;2987;50.884;14.818;2024-03-25T00:45:31;5.10;99.90
5924;DHT22;2987;50.884;14.818;2024-03-25T00:47:57;5.60;99.90
5924;DHT22;2987;50.884;14.818;2024-03-25T00:50:26;5.10;99.90
5924;DHT22;2987;50.884;14.818;2024-03-25T00:52:52;5.00;99.90
5924;DHT22;2987;50.884;14.818;2024-03-25T00:55:18;5.10;99.90
5924;DHT22;2987;50.884;14.818;2024-03-25T00:57:43;5.10;99.90
5924;DHT22;2987;50.884;14.818;2024-03-25T01:00:10;5.10;99.90
5924;DHT22;2987;50.884;14.818;2024-03-25T01:02:36;5.20;99.90
5924;DHT22;2987;50.884;14.818;2024-03-25T01:05:04;5.10;99.90
5924;DHT22;2987;50.884;14.818;2024-03-25T01:07:31;5.10;99.90
5924;DHT22;2987;50.884;14.818;2024-03-25T01:09:57;5.00;99.90
5924;DHT22;2987;50.884;14.818;2024-03-25T01:12:25;5.10;99.90
5924;DHT22;2987;50.884;14.818;2024-03-25T01:14:52;5.10;99.90
5924;DHT22;2987;50.884;14.818;2024-03-25T01:17:18;5.20;99.90
5924;DHT22;2987;50.884;14.818;2024-03-25T01:19:44;5.00;99.90
5924;DHT22;2987;50.884;14.818;2024-03-25T01:22:10;5.00;99.90
5924;DHT22;2987;50.884;14.818;2024-03-25T01:24:36;5.00;99.90
5924;DHT22;2987;50.884;14.818;2024-03-25T01:27:03;5.10;99.90
5924;DHT22;2987;50.884;14.818;2024-03-25T01:29:29;5.10;99.90
5924;DHT22;2987;50.884;14.818;2024-03-25T01:31:55;5.10;99.90
5924;DHT22;2987;50.884;14.818;2024-03-25T01:34:23;5.20;99.90
5924;DHT22;2987;50.884;14.818;2024-03-25T01:36:49;5.10;99.90
5924;DHT22;2987;50.884;14.818;2024-03-25T01:39:15;5.00;99.90
5924;DHT22;2987;50.884;14.818;2024-03-25T01:41:41;5.10;99.90
5924;DHT22;2987;50.884;14.818;2024-03-25T01:44:07;5.00;99.90
5924;DHT22;2987;50.884;14.818;2024-03-25T01:46:33;5.10;99.90
5924;DHT22;2987;50.884;14.818;2024-03-25T01:48:59;5.10;99.90
5924;DHT22;2987;50.884;14.818;2024-03-25T01:51:25;5.00;99.90
5924;DHT22;2987;50.884;14.818;2024-03-25T01:53:53;4.80;99.90
5924;DHT22;2987;50.884;14.818;2024-03-25T01:56:21;5.30;99.90
5924;DHT22;2987;50.884;14.818;2024-03-25T01:58:49;4.80;99.90
5924;DHT22;2987;50.884;14.818;2024-03-25T02:01:15;4.80;99.90
5924;DHT22;2987;50.884;14.818;2024-03-25T02:03:45;4.80;99.90
5924;DHT22;2987;50.884;14.818;2024-03-25T02:06:17;4.90;99.90
5924;DHT22;2987;50.884;14.818;2024-03-25T02:08:47;4.80;99.90
5924;DHT22;2987;50.884;14.818;2024-03-25T02:11:15;4.80;99.90
5924;DHT22;2987;50.884;14.818;2024-03-25T02:13:42;4.90;99.90
5924;DHT22;2987;50.884;14.818;2024-03-25T02:16:08;4.70;99.90
5924;DHT22;2987;50.884;14.818;2024-03-25T02:18:34;4.80;99.90
5924;DHT22;2987;50.884;14.818;2024-03-25T02:21:00;4.90;99.90
5924;DHT22;2987;50.884;14.818;2024-03-25T02:23:26;4.80;99.90
5924;DHT22;2987;50.884;14.818;2024-03-25T02:25:53;5.00;99.90
5924;DHT22;2987;50.884;14.818;2024-03-25T02:28:20;4.70;99.90
5924;DHT22;2987;50.884;14.818;2024-03-25T02:30:46;4.70;99.90
5924;DHT22;2987;50.884;14.818;2024-03-25T02:33:13;4.70;99.90
5924;DHT22;2987;50.884;14.818;2024-03-25T02:35:40;4.60;99.90
5924;DHT22;2987;50.884;14.818;2024-03-25T02:38:08;4.70;99.90
5924;DHT22;2987;50.884;14.818;2024-03-25T02:40:35;4.50;99.90
5924;DHT22;2987;50.884;14.818;2024-03-25T02:43:02;4.50;99.90
5924;DHT22;2987;50.884;14.818;2024-03-25T02:45:28;4.50;99.90
5924;DHT22;2987;50.884;14.818;2024-03-25T02:47:55;4.50;99.90
5924;DHT22;2987;50.884;14.818;2024-03-25T02:50:21;4.50;99.90
5924;DHT22;2987;50.884;14.818;2024-03-25T02:52:47;4.50;99.90
5924;DHT22;2987;50.884;14.818;2024-03-25T02:55:13;4.50;99.90
5924;DHT22;2987;50.884;14.818;2024-03-25T02:57:39;4.40;99.90
5924;DHT22;2987;50.884;14.818;2024-03-25T03:00:06;4.60;99.90
5924;DHT22;2987;50.884;14.818;2024-03-25T03:02:32;4.70;99.90
5924;DHT22;2987;50.884;14.818;2024-03-25T03:04:58;4.30;99.90
5924;DHT22;2987;50.884;14.818;2024-03-25T03:07:25;4.30;99.90
5924;DHT22;2987;50.884;14.818;2024-03-25T03:09:51;4.40;99.90
5924;DHT22;2987;50.884;14.818;2024-03-25T03:12:17;4.60;99.90
5924;DHT22;2987;50.884;14.818;2024-03-25T03:14:43;4.60;99.90
5924;DHT22;2987;50.884;14.818;2024-03-25T03:17:09;4.50;99.90
5924;DHT22;2987;50.884;14.818;2024-03-25T03:19:35;4.50;99.90
5924;DHT22;2987;50.884;14.818;2024-03-25T03:22:02;4.50;99.90
5924;DHT22;2987;50.884;14.818;2024-03-25T03:24:29;4.50;99.90
5924;DHT22;2987;50.884;14.818;2024-03-25T03:26:55;4.50;99.90
5924;DHT22;2987;50.884;14.818;2024-03-25T03:29:21;4.50;99.90
5924;DHT22;2987;50.884;14.818;2024-03-25T03:31:47;4.50;99.90
5924;DHT22;2987;50.884;14.818;2024-03-25T03:34:13;4.50;99.90
5924;DHT22;2987;50.884;14.818;2024-03-25T03:36:39;4.50;99.90
5924;DHT22;2987;50.884;14.818;2024-03-25T03:39:06;4.50;99.90
5924;DHT22;2987;50.884;14.818;2024-03-25T03:41:35;4.50;99.90
5924;DHT22;2987;50.884;14.818;2024-03-25T03:44:02;4.50;99.90
5924;DHT22;2987;50.884;14.818;2024-03-25T03:46:28;4.50;99.90
5924;DHT22;2987;50.884;14.818;2024-03-25T03:48:54;4.50;99.90
5924;DHT22;2987;50.884;14.818;2024-03-25T03:51:20;4.50;99.90
5924;DHT22;2987;50.884;14.818;2024-03-25T03:54:05;4.50;99.90
5924;DHT22;2987;50.884;14.818;2024-03-25T03:56:31;4.50;99.90
5924;DHT22;2987;50.884;14.818;2024-03-25T03:58:57;4.50;99.90
5924;DHT22;2987;50.884;14.818;2024-03-25T04:01:23;4.50;99.90
5924;DHT22;2987;50.884;14.818;2024-03-25T04:03:49;4.60;99.90
5924;DHT22;2987;50.884;14.818;2024-03-25T04:06:16;4.50;99.90
5924;DHT22;2987;50.884;14.818;2024-03-25T04:08:42;4.50;99.90
5924;DHT22;2987;50.884;14.818;2024-03-25T04:11:08;4.50;99.90
5924;DHT22;2987;50.884;14.818;2024-03-25T04:13:35;4.50;99.90
5924;DHT22;2987;50.884;14.818;2024-03-25T04:16:03;4.40;99.90
5924;DHT22;2987;50.884;14.818;2024-03-25T04:18:31;4.20;99.90
5924;DHT22;2987;50.884;14.818;2024-03-25T04:20:57;4.20;99.90
5924;DHT22;2987;50.884;14.818;2024-03-25T04:23:24;4.20;99.90
5924;DHT22;2987;50.884;14.818;2024-03-25T04:25:51;4.40;99.90
5924;DHT22;2987;50.884;14.818;2024-03-25T04:28:17;4.10;99.90
5924;DHT22;2987;50.884;14.818;2024-03-25T04:30:43;4.30;99.90
5924;DHT22;2987;50.884;14.818;2024-03-25T04:33:09;4.30;99.90
5924;DHT22;2987;50.884;14.818;2024-03-25T04:35:35;4.10;99.90
5924;DHT22;2987;50.884;14.818;2024-03-25T04:38:01;4.20;99.90
5924;DHT22;2987;50.884;14.818;2024-03-25T04:40:29;4.20;99.90
5924;DHT22;2987;50.884;14.818;2024-03-25T04:42:55;4.20;99.90
5924;DHT22;2987;50.884;14.818;2024-03-25T04:45:21;4.20;99.90
5924;DHT22;2987;50.884;14.818;2024-03-25T04:47:47;4.20;99.90
5924;DHT22;2987;50.884;14.818;2024-03-25T04:50:13;4.30;99.90
5924;DHT22;2987;50.884;14.818;2024-03-25T04:52:39;4.20;99.90
5924;DHT22;2987;50.884;14.818;2024-03-25T04:55:05;4.10;99.90
5924;DHT22;2987;50.884;14.818;2024-03-25T04:57:31;4.10;99.90
5924;DHT22;2987;50.884;14.818;2024-03-25T04:59:57;4.10;99.90
5924;DHT22;2987;50.884;14.818;2024-03-25T05:02:24;4.50;99.90
5924;DHT22;2987;50.884;14.818;2024-03-25T05:04:50;4.30;99.90
5924;DHT22;2987;50.884;14.818;2024-03-25T05:07:16;4.40;99.90
5924;DHT22;2987;50.884;14.818;2024-03-25T05:09:42;4.50;99.90
5924;DHT22;2987;50.884;14.818;2024-03-25T05:12:08;4.50;99.90
5924;DHT22;2987;50.884;14.818;2024-03-25T05:14:34;4.50;99.90
5924;DHT22;2987;50.884;14.818;2024-03-25T05:17:00;4.50;99.90
5924;DHT22;2987;50.884;14.818;2024-03-25T05:19:29;4.60;99.90
5924;DHT22;2987;50.884;14.818;2024-03-25T05:21:55;4.50;99.90
5924;DHT22;2987;50.884;14.818;2024-03-25T05:24:21;4.50;99.90
5924;DHT22;2987;50.884;14.818;2024-03-25T05:26:47;4.50;99.90
5924;DHT22;2987;50.884;14.818;2024-03-25T05:29:13;4.50;99.90
5924;DHT22;2987;50.884;14.818;2024-03-25T05:31:39;4.40;99.90
5924;DHT22;2987;50.884;14.818;2024-03-25T05:34:22;4.80;99.90
5924;DHT22;2987;50.884;14.818;2024-03-25T05:36:48;4.70;99.90
5924;DHT22;2987;50.884;14.818;2024-03-25T05:39:14;4.80;99.90
5924;DHT22;2987;50.884;14.818;2024-03-25T05:41:40;4.80;99.90
5924;DHT22;2987;50.884;14.818;2024-03-25T05:44:06;4.90;99.90
5924;DHT22;2987;50.884;14.818;2024-03-25T05:46:32;4.80;99.90
5924;DHT22;2987;50.884;14.818;2024-03-25T05:49:02;4.80;99.90
5924;DHT22;2987;50.884;14.818;2024-03-25T05:51:29;5.20;99.90
5924;DHT22;2987;50.884;14.818;2024-03-25T05:53:55;4.80;99.90
5924;DHT22;2987;50.884;14.818;2024-03-25T05:56:21;5.10;99.90
5924;DHT22;2987;50.884;14.818;2024-03-25T05:58:47;5.30;99.90
5924;DHT22;2987;50.884;14.818;2024-03-25T06:01:13;5.20;99.90
5924;DHT22;2987;50.884;14.818;2024-03-25T06:03:39;5.10;99.90
5924;DHT22;2987;50.884;14.818;2024-03-25T06:06:05;5.20;99.90
5924;DHT22;2987;50.884;14.818;2024-03-25T06:08:31;5.30;99.90
5924;DHT22;2987;50.884;14.818;2024-03-25T06:11:01;5.00;99.90
5924;DHT22;2987;50.884;14.818;2024-03-25T06:13:27;5.10;99.90
5924;DHT22;2987;50.884;14.818;2024-03-25T06:15:53;5.40;99.90
5924;DHT22;2987;50.884;14.818;2024-03-25T06:18:19;5.10;99.90
5924;DHT22;2987;50.884;14.818;2024-03-25T06:20:46;5.50;99.90
5924;DHT22;2987;50.884;14.818;2024-03-25T06:23:28;5.10;99.90
5924;DHT22;2987;50.884;14.818;2024-03-25T06:25:55;5.60;99.90
5924;DHT22;2987;50.884;14.818;2024-03-25T06:28:22;5.40;99.90
5924;DHT22;2987;50.884;14.818;2024-03-25T06:30:49;5.70;99.90
5924;DHT22;2987;50.884;14.818;2024-03-25T06:33:34;5.70;99.90
5924;DHT22;2987;50.884;14.818;2024-03-25T06:36:20;5.50;99.90
5924;DHT22;2987;50.884;14.818;2024-03-25T06:38:46;5.40;99.90
5924;DHT22;2987;50.884;14.818;2024-03-25T06:41:12;5.80;99.90
5924;DHT22;2987;50.884;14.818;2024-03-25T06:43:39;5.40;99.90
5924;DHT22;2987;50.884;14.818;2024-03-25T06:46:06;5.40;99.90
5924;DHT22;2987;50.884;14.818;2024-03-25T06:48:33;5.90;99.90
5924;DHT22;2987;50.884;14.818;2024-03-25T06:51:00;5.90;99.90
5924;DHT22;2987;50.884;14.818;2024-03-25T06:53:29;6.00;99.90
5924;DHT22;2987;50.884;14.818;2024-03-25T06:55:56;5.90;99.90
5924;DHT22;2987;50.884;14.818;2024-03-25T06:58:25;5.90;99.90
5924;DHT22;2987;50.884;14.818;2024-03-25T07:00:52;5.70;99.90
5924;DHT22;2987;50.884;14.818;2024-03-25T07:03:19;6.00;99.90
5924;DHT22;2987;50.884;14.818;2024-03-25T07:05:46;5.90;99.90
5924;DHT22;2987;50.884;14.818;2024-03-25T07:08:13;5.70;99.90
5924;DHT22;2987;50.884;14.818;2024-03-25T07:10:43;6.00;99.90
5924;DHT22;2987;50.884;14.818;2024-03-25T07:13:10;5.70;99.90
5924;DHT22;2987;50.884;14.818;2024-03-25T07:15:36;6.30;99.90
5924;DHT22;2987;50.884;14.818;2024-03-25T07:18:02;5.80;99.90
5924;DHT22;2987;50.884;14.818;2024-03-25T07:20:29;6.20;99.90
5924;DHT22;2987;50.884;14.818;2024-03-25T07:22:56;5.70;99.90
5924;DHT22;2987;50.884;14.818;2024-03-25T07:25:23;5.70;99.90
5924;DHT22;2987;50.884;14.818;2024-03-25T07:27:50;6.30;99.90
5924;DHT22;2987;50.884;14.818;2024-03-25T07:30:16;6.00;99.90
5924;DHT22;2987;50.884;14.818;2024-03-25T07:32:42;5.80;99.90
5924;DHT22;2987;50.884;14.818;2024-03-25T07:35:11;6.00;99.90
5924;DHT22;2987;50.884;14.818;2024-03-25T07:37:37;5.70;99.90
5924;DHT22;2987;50.884;14.818;2024-03-25T07:40:06;6.10;99.90
5924;DHT22;2987;50.884;14.818;2024-03-25T07:42:33;6.20;99.90
5924;DHT22;2987;50.884;14.818;2024-03-25T07:44:59;6.30;99.90
5924;DHT22;2987;50.884;14.818;2024-03-25T07:47:25;6.10;99.90
5924;DHT22;2987;50.884;14.818;2024-03-25T07:49:51;6.20;99.90
5924;DHT22;2987;50.884;14.818;2024-03-25T07:52:17;6.20;99.90
5924;DHT22;2987;50.884;14.818;2024-03-25T07:54:44;6.20;99.90
5924;DHT22;2987;50.884;14.818;2024-03-25T07:57:10;6.20;99.90
5924;DHT22;2987;50.884;14.818;2024-03-25T07:59:36;6.20;99.90
5924;DHT22;2987;50.884;14.818;2024-03-25T08:02:02;6.30;99.90
5924;DHT22;2987;50.884;14.818;2024-03-25T08:04:28;6.10;99.90
5924;DHT22;2987;50.884;14.818;2024-03-25T08:06:54;6.10;99.90
5924;DHT22;2987;50.884;14.818;2024-03-25T08:09:20;6.20;99.90
5924;DHT22;2987;50.884;14.818;2024-03-25T08:11:46;6.30;99.90
5924;DHT22;2987;50.884;14.818;2024-03-25T08:14:12;6.10;99.90
5924;DHT22;2987;50.884;14.818;2024-03-25T08:16:38;6.10;99.90
5924;DHT22;2987;50.884;14.818;2024-03-25T08:19:04;6.10;99.90
5924;DHT22;2987;50.884;14.818;2024-03-25T08:21:31;6.30;99.90
5924;DHT22;2987;50.884;14.818;2024-03-25T08:23:57;6.00;99.90
5924;DHT22;2987;50.884;14.818;2024-03-25T08:26:23;6.30;99.90
5924;DHT22;2987;50.884;14.818;2024-03-25T08:28:49;6.30;99.90
5924;DHT22;2987;50.884;14.818;2024-03-25T08:31:15;6.20;99.90
5924;DHT22;2987;50.884;14.818;2024-03-25T08:33:41;6.60;99.90
5924;DHT22;2987;50.884;14.818;2024-03-25T08:36:07;6.40;99.90
5924;DHT22;2987;50.884;14.818;2024-03-25T08:38:34;6.60;99.90
5924;DHT22;2987;50.884;14.818;2024-03-25T08:41:00;6.70;99.90
5924;DHT22;2987;50.884;14.818;2024-03-25T08:43:27;6.60;99.90
5924;DHT22;2987;50.884;14.818;2024-03-25T08:45:53;6.60;99.90
5924;DHT22;2987;50.884;14.818;2024-03-25T08:48:18;6.60;99.90
5924;DHT22;2987;50.884;14.818;2024-03-25T08:50:44;6.90;99.90
5924;DHT22;2987;50.884;14.818;2024-03-25T08:53:10;6.90;99.90
5924;DHT22;2987;50.884;14.818;2024-03-25T08:55:36;6.90;99.90
5924;DHT22;2987;50.884;14.818;2024-03-25T08:58:02;7.10;99.90
5924;DHT22;2987;50.884;14.818;2024-03-25T09:00:28;7.30;99.90
5924;DHT22;2987;50.884;14.818;2024-03-25T09:02:54;7.60;99.90
5924;DHT22;2987;50.884;14.818;2024-03-25T09:05:21;8.00;99.90
5924;DHT22;2987;50.884;14.818;2024-03-25T09:07:51;8.50;99.90
5924;DHT22;2987;50.884;14.818;2024-03-25T09:10:18;9.20;99.90
5924;DHT22;2987;50.884;14.818;2024-03-25T09:13:03;9.70;99.90
5924;DHT22;2987;50.884;14.818;2024-03-25T09:15:29;10.30;99.90
5924;DHT22;2987;50.884;14.818;2024-03-25T09:17:56;10.30;99.90
5924;DHT22;2987;50.884;14.818;2024-03-25T09:20:22;10.10;99.90
5924;DHT22;2987;50.884;14.818;2024-03-25T09:22:49;9.80;99.90
5924;DHT22;2987;50.884;14.818;2024-03-25T09:25:18;9.90;99.90
5924;DHT22;2987;50.884;14.818;2024-03-25T09:27:48;9.80;99.90
5924;DHT22;2987;50.884;14.818;2024-03-25T09:30:15;9.80;99.90
5924;DHT22;2987;50.884;14.818;2024-03-25T09:32:41;9.70;99.90
5924;DHT22;2987;50.884;14.818;2024-03-25T09:35:09;9.70;99.90
5924;DHT22;2987;50.884;14.818;2024-03-25T09:37:35;9.60;99.90
5924;DHT22;2987;50.884;14.818;2024-03-25T09:40:03;9.80;99.90
5924;DHT22;2987;50.884;14.818;2024-03-25T09:42:55;9.80;99.90
5924;DHT22;2987;50.884;14.818;2024-03-25T09:45:24;9.70;99.90
5924;DHT22;2987;50.884;14.818;2024-03-25T09:47:51;9.70;99.90
5924;DHT22;2987;50.884;14.818;2024-03-25T09:50:17;9.80;99.90
5924;DHT22;2987;50.884;14.818;2024-03-25T09:52:49;9.90;99.90
5924;DHT22;2987;50.884;14.818;2024-03-25T09:55:16;10.00;99.90
5924;DHT22;2987;50.884;14.818;2024-03-25T09:57:45;9.90;99.90
5924;DHT22;2987;50.884;14.818;2024-03-25T10:00:12;9.80;99.90
5924;DHT22;2987;50.884;14.818;2024-03-25T10:02:41;9.70;99.90
5924;DHT22;2987;50.884;14.818;2024-03-25T10:05:08;9.30;99.90
5924;DHT22;2987;50.884;14.818;2024-03-25T10:07:35;9.70;99.90
5924;DHT22;2987;50.884;14.818;2024-03-25T10:10:05;9.40;99.90
5924;DHT22;2987;50.884;14.818;2024-03-25T10:12:32;9.10;99.90
5924;DHT22;2987;50.884;14.818;2024-03-25T10:14:59;9.00;99.90
5924;DHT22;2987;50.884;14.818;2024-03-25T10:17:25;9.10;99.90
5924;DHT22;2987;50.884;14.818;2024-03-25T10:19:54;8.80;99.90
5924;DHT22;2987;50.884;14.818;2024-03-25T10:22:20;8.90;99.90
5924;DHT22;2987;50.884;14.818;2024-03-25T10:24:47;8.90;99.90
5924;DHT22;2987;50.884;14.818;2024-03-25T10:27:18;8.80;99.90
5924;DHT22;2987;50.884;14.818;2024-03-25T10:29:57;8.80;99.90
5924;DHT22;2987;50.884;14.818;2024-03-25T10:32:23;9.00;99.90
5924;DHT22;2987;50.884;14.818;2024-03-25T10:34:57;9.50;99.90
5924;DHT22;2987;50.884;14.818;2024-03-25T10:37:26;9.60;99.90
5924;DHT22;2987;50.884;14.818;2024-03-25T10:40:00;9.90;99.90
5924;DHT22;2987;50.884;14.818;2024-03-25T10:42:26;9.80;99.90
5924;DHT22;2987;50.884;14.818;2024-03-25T10:44:53;9.70;99.90
5924;DHT22;2987;50.884;14.818;2024-03-25T10:47:28;9.50;99.90
5924;DHT22;2987;50.884;14.818;2024-03-25T10:50:00;9.20;99.90
5924;DHT22;2987;50.884;14.818;2024-03-25T10:52:32;9.10;99.90
5924;DHT22;2987;50.884;14.818;2024-03-25T10:54:59;8.90;99.90
5924;DHT22;2987;50.884;14.818;2024-03-25T10:57:26;8.20;99.90
5924;DHT22;2987;50.884;14.818;2024-03-25T10:59:52;8.10;99.90
5924;DHT22;2987;50.884;14.818;2024-03-25T11:02:21;7.60;99.90
5924;DHT22;2987;50.884;14.818;2024-03-25T11:04:48;7.30;99.90
5924;DHT22;2987;50.884;14.818;2024-03-25T11:07:15;7.40;99.90
5924;DHT22;2987;50.884;14.818;2024-03-25T11:09:42;7.50;99.90
5924;DHT22;2987;50.884;14.818;2024-03-25T11:12:12;7.50;99.90
5924;DHT22;2987;50.884;14.818;2024-03-25T11:14:41;7.60;99.90
5924;DHT22;2987;50.884;14.818;2024-03-25T11:17:16;7.80;99.90
5924;DHT22;2987;50.884;14.818;2024-03-25T11:19:42;7.90;99.90
5924;DHT22;2987;50.884;14.818;2024-03-25T11:22:10;7.90;99.90
5924;DHT22;2987;50.884;14.818;2024-03-25T11:24:36;8.10;99.90
5924;DHT22;2987;50.884;14.818;2024-03-25T11:27:06;8.30;99.90
5924;DHT22;2987;50.884;14.818;2024-03-25T11:29:33;8.50;99.90
5924;DHT22;2987;50.884;14.818;2024-03-25T11:32:04;8.70;99.90
5924;DHT22;2987;50.884;14.818;2024-03-25T11:34:30;8.80;99.90
5924;DHT22;2987;50.884;14.818;2024-03-25T11:36:57;9.00;99.90
5924;DHT22;2987;50.884;14.818;2024-03-25T11:39:24;9.10;99.90
5924;DHT22;2987;50.884;14.818;2024-03-25T11:41:54;9.10;99.90
5924;DHT22;2987;50.884;14.818;2024-03-25T11:44:21;9.30;99.90
5924;DHT22;2987;50.884;14.818;2024-03-25T11:46:51;9.50;99.90
5924;DHT22;2987;50.884;14.818;2024-03-25T11:49:21;9.80;99.90
5924;DHT22;2987;50.884;14.818;2024-03-25T11:51:47;10.10;99.90
5924;DHT22;2987;50.884;14.818;2024-03-25T11:54:14;10.30;99.90
5924;DHT22;2987;50.884;14.818;2024-03-25T11:56:41;10.40;99.90
5924;DHT22;2987;50.884;14.818;2024-03-25T11:59:09;10.50;99.90
5924;DHT22;2987;50.884;14.818;2024-03-25T12:01:37;10.60;99.90
5924;DHT22;2987;50.884;14.818;2024-03-25T12:04:18;10.50;99.90
5924;DHT22;2987;50.884;14.818;2024-03-25T12:06:44;10.50;99.90
5924;DHT22;2987;50.884;14.818;2024-03-25T12:09:11;10.40;99.90
5924;DHT22;2987;50.884;14.818;2024-03-25T12:11:55;10.20;99.90
5924;DHT22;2987;50.884;14.818;2024-03-25T12:14:22;10.10;99.90
5924;DHT22;2987;50.884;14.818;2024-03-25T12:16:49;10.20;99.90
5924;DHT22;2987;50.884;14.818;2024-03-25T12:19:16;10.20;99.90
5924;DHT22;2987;50.884;14.818;2024-03-25T12:21:44;10.20;99.90
5924;DHT22;2987;50.884;14.818;2024-03-25T12:24:11;10.20;99.90
5924;DHT22;2987;50.884;14.818;2024-03-25T12:26:37;10.00;99.90
5924;DHT22;2987;50.884;14.818;2024-03-25T12:29:03;10.00;99.90
5924;DHT22;2987;50.884;14.818;2024-03-25T12:31:30;9.80;99.90
5924;DHT22;2987;50.884;14.818;2024-03-25T12:33:56;9.50;99.90
5924;DHT22;2987;50.884;14.818;2024-03-25T12:36:22;9.60;99.90
5924;DHT22;2987;50.884;14.818;2024-03-25T12:38:55;9.60;99.90
5924;DHT22;2987;50.884;14.818;2024-03-25T12:41:22;9.50;99.90
5924;DHT22;2987;50.884;14.818;2024-03-25T12:43:50;9.10;99.90
5924;DHT22;2987;50.884;14.818;2024-03-25T12:46:17;9.20;99.90
5924;DHT22;2987;50.884;14.818;2024-03-25T12:48:43;8.90;99.90
5924;DHT22;2987;50.884;14.818;2024-03-25T12:51:13;9.20;99.90
5924;DHT22;2987;50.884;14.818;2024-03-25T12:53:39;8.50;99.90
5924;DHT22;2987;50.884;14.818;2024-03-25T12:56:06;8.70;99.90
5924;DHT22;2987;50.884;14.818;2024-03-25T12:58:32;8.80;99.90
5924;DHT22;2987;50.884;14.818;2024-03-25T13:00:58;8.80;99.90
5924;DHT22;2987;50.884;14.818;2024-03-25T13:03:24;9.00;99.90
5924;DHT22;2987;50.884;14.818;2024-03-25T13:05:50;9.00;99.90
5924;DHT22;2987;50.884;14.818;2024-03-25T13:08:16;8.80;99.90
5924;DHT22;2987;50.884;14.818;2024-03-25T13:10:43;8.80;99.90
5924;DHT22;2987;50.884;14.818;2024-03-25T13:13:09;9.20;99.90
5924;DHT22;2987;50.884;14.818;2024-03-25T13:15:36;8.90;99.90
5924;DHT22;2987;50.884;14.818;2024-03-25T13:18:02;8.80;99.90
5924;DHT22;2987;50.884;14.818;2024-03-25T13:20:28;9.20;99.90
5924;DHT22;2987;50.884;14.818;2024-03-25T13:22:54;8.90;99.90
5924;DHT22;2987;50.884;14.818;2024-03-25T13:25:27;8.90;99.90
5924;DHT22;2987;50.884;14.818;2024-03-25T13:27:53;9.20;99.90
5924;DHT22;2987;50.884;14.818;2024-03-25T13:30:19;9.50;99.90
5924;DHT22;2987;50.884;14.818;2024-03-25T13:32:45;9.30;99.90
5924;DHT22;2987;50.884;14.818;2024-03-25T13:35:11;9.40;99.90
5924;DHT22;2987;50.884;14.818;2024-03-25T13:37:37;9.40;99.90
5924;DHT22;2987;50.884;14.818;2024-03-25T13:40:04;9.40;99.90
5924;DHT22;2987;50.884;14.818;2024-03-25T13:42:31;9.50;99.90
5924;DHT22;2987;50.884;14.818;2024-03-25T13:44:57;9.80;99.90
5924;DHT22;2987;50.884;14.818;2024-03-25T13:47:24;9.80;99.90
5924;DHT22;2987;50.884;14.818;2024-03-25T13:49:49;9.70;99.90
5924;DHT22;2987;50.884;14.818;2024-03-25T13:52:25;9.80;99.90
5924;DHT22;2987;50.884;14.818;2024-03-25T13:54:51;10.00;99.90
5924;DHT22;2987;50.884;14.818;2024-03-25T13:57:17;9.90;99.90
5924;DHT22;2987;50.884;14.818;2024-03-25T13:59:43;10.00;99.90
5924;DHT22;2987;50.884;14.818;2024-03-25T14:02:09;10.00;99.90
5924;DHT22;2987;50.884;14.818;2024-03-25T14:04:35;10.10;99.90
5924;DHT22;2987;50.884;14.818;2024-03-25T14:07:01;10.20;99.90
5924;DHT22;2987;50.884;14.818;2024-03-25T14:09:28;10.10;99.90
5924;DHT22;2987;50.884;14.818;2024-03-25T14:11:54;10.20;99.90
5924;DHT22;2987;50.884;14.818;2024-03-25T14:14:20;10.30;99.90
5924;DHT22;2987;50.884;14.818;2024-03-25T14:16:46;10.40;99.90
5924;DHT22;2987;50.884;14.818;2024-03-25T14:19:12;10.60;99.90
5924;DHT22;2987;50.884;14.818;2024-03-25T14:21:38;10.60;99.90
5924;DHT22;2987;50.884;14.818;2024-03-25T14:24:07;10.60;99.90
5924;DHT22;2987;50.884;14.818;2024-03-25T14:26:33;10.50;99.90
5924;DHT22;2987;50.884;14.818;2024-03-25T14:28:59;10.30;99.90
5924;DHT22;2987;50.884;14.818;2024-03-25T14:31:26;10.20;99.90
5924;DHT22;2987;50.884;14.818;2024-03-25T14:33:54;10.00;99.90
5924;DHT22;2987;50.884;14.818;2024-03-25T14:36:20;9.90;99.90
5924;DHT22;2987;50.884;14.818;2024-03-25T14:38:46;9.80;99.90
5924;DHT22;2987;50.884;14.818;2024-03-25T14:41:12;9.60;99.90
5924;DHT22;2987;50.884;14.818;2024-03-25T14:43:39;9.80;99.90
5924;DHT22;2987;50.884;14.818;2024-03-25T14:46:05;9.40;99.90
5924;DHT22;2987;50.884;14.818;2024-03-25T14:48:31;9.60;99.90
5924;DHT22;2987;50.884;14.818;2024-03-25T14:50:57;9.20;99.90
5924;DHT22;2987;50.884;14.818;2024-03-25T14:53:23;9.40;99.90
5924;DHT22;2987;50.884;14.818;2024-03-25T14:55:49;9.10;99.90
5924;DHT22;2987;50.884;14.818;2024-03-25T14:58:17;9.20;99.90
5924;DHT22;2987;50.884;14.818;2024-03-25T15:00:43;9.60;99.90
5924;DHT22;2987;50.884;14.818;2024-03-25T15:03:09;9.20;99.90
5924;DHT22;2987;50.884;14.818;2024-03-25T15:05:35;9.20;99.90
5924;DHT22;2987;50.884;14.818;2024-03-25T15:08:01;9.30;99.90
5924;DHT22;2987;50.884;14.818;2024-03-25T15:10:27;9.20;99.90
5924;DHT22;2987;50.884;14.818;2024-03-25T15:12:54;9.70;99.90
5924;DHT22;2987;50.884;14.818;2024-03-25T15:15:19;9.40;99.90
5924;DHT22;2987;50.884;14.818;2024-03-25T15:17:45;9.50;99.90
5924;DHT22;2987;50.884;14.818;2024-03-25T15:20:12;9.50;99.90
5924;DHT22;2987;50.884;14.818;2024-03-25T15:22:38;9.30;99.90
5924;DHT22;2987;50.884;14.818;2024-03-25T15:25:05;9.60;99.90
5924;DHT22;2987;50.884;14.818;2024-03-25T15:27:33;9.40;99.90
5924;DHT22;2987;50.884;14.818;2024-03-25T15:29:59;9.40;99.90
5924;DHT22;2987;50.884;14.818;2024-03-25T15:32:25;9.80;99.90
5924;DHT22;2987;50.884;14.818;2024-03-25T15:34:50;9.70;99.90
5924;DHT22;2987;50.884;14.818;2024-03-25T15:37:16;9.80;99.90
5924;DHT22;2987;50.884;14.818;2024-03-25T15:39:42;9.90;99.90
5924;DHT22;2987;50.884;14.818;2024-03-25T15:42:08;9.90;99.90
5924;DHT22;2987;50.884;14.818;2024-03-25T15:44:34;9.90;99.90
5924;DHT22;2987;50.884;14.818;2024-03-25T15:47:00;9.90;99.90
5924;DHT22;2987;50.884;14.818;2024-03-25T15:49:26;10.00;99.90
5924;DHT22;2987;50.884;14.818;2024-03-25T15:51:53;9.90;99.90
5924;DHT22;2987;50.884;14.818;2024-03-25T15:54:19;9.90;99.90
5924;DHT22;2987;50.884;14.818;2024-03-25T15:56:45;9.90;99.90
5924;DHT22;2987;50.884;14.818;2024-03-25T15:59:11;9.70;99.90